This is the latest recevied weather packets stored in our database for station/object EA3IK-7. If no packets are shown the sender has not sent any weather packets the latest 10 day(s).
| Time | Temp. | Humidity | Pressure | Rain* | Wind** | Luminosity | Snow |
|---|---|---|---|---|---|---|---|
| 1778206819 | 14.44° C | 90% | 1009.2 hPa | - | - | - | - |
| 1778205018 | 15° C | 90% | 1009.4 hPa | - | - | - | - |
| 1778203219 | 15° C | 89% | 1009.5 hPa | - | - | - | - |
| 1778203218 | 15° C | 89% | 1009.5 hPa | - | - | - | - |
| 1778201418 | 15° C | 88% | 1009.8 hPa | - | - | - | - |
| 1778199618 | 15.56° C | 88% | 1010 hPa | - | - | - | - |
| 1778197818 | 15.56° C | 88% | 1010.2 hPa | - | - | - | - |
| 1778196018 | 15.56° C | 86% | 1010.3 hPa | - | - | - | - |
| 1778194218 | 16.11° C | 86% | 1010.5 hPa | - | - | - | - |
| 1778192418 | 16.11° C | 85% | 1010.7 hPa | - | - | - | - |
| 1778190618 | 16.11° C | 84% | 1010.8 hPa | - | - | - | - |
| 1778188818 | 16.67° C | 83% | 1010.7 hPa | - | - | - | - |
| 1778187018 | 17.22° C | 82% | 1010.8 hPa | - | - | - | - |
| 1778185218 | 17.22° C | 80% | 1010.5 hPa | - | - | - | - |
| 1778183418 | 17.78° C | 77% | 1010.1 hPa | - | - | - | - |
| 1778181626 | 18.33° C | 75% | 1009.6 hPa | - | - | - | - |
| 1778181618 | 18.33° C | 75% | 1009.6 hPa | - | - | - | - |
| 1778179818 | 18.89° C | 70% | 1009.3 hPa | - | - | - | - |
| 1778178018 | 20° C | 67% | 1009 hPa | - | - | - | - |
| 1778176218 | 20.56° C | 64% | 1008.8 hPa | - | - | - | - |
| 1778174418 | 20.56° C | 63% | 1007.2 hPa | - | - | - | - |
| 1778172618 | 21.67° C | 62% | 1008.6 hPa | - | - | - | - |
| 1778170818 | 20.56° C | 61% | 1006.7 hPa | - | - | - | - |
| 1778169018 | 21.67° C | 59% | 1008.4 hPa | - | - | - | - |
| 1778169017 | 21.67° C | 59% | 1008.4 hPa | - | - | - | - |
* Rain since midnight (hover to see other rain measurements)
** Current wind speed in m/s (hover to see current wind gust speed)